Time;durP1;ratioP1;P1;durP2;ratioP2;P2;SDS_P1;SDS_P2;PMS_P1;PMS_P2;Temp;Humidity;BMP_temperature;BMP_pressure;BME280_temperature;BME280_humidity;BME280_pressure;Samples;Min_cycle;Max_cycle;Signal;HPM_P1;HPM_P2
2023/06/04 00:02:02;;;;;;;0.50;0.50;;;19.30;93.90;;;19.32;37.45;101551.03;4961245;28;97678;-56
2023/06/04 00:04:28;;;;;;;0.40;0.20;;;19.20;90.30;;;19.28;37.25;101554.84;4969359;28;97333;-56
2023/06/04 00:06:54;;;;;;;0.30;0.20;;;19.10;90.60;;;19.29;41.53;101559.22;4981874;27;101532;-56
2023/06/04 00:09:20;;;;;;;0.70;0.33;;;19.20;93.10;;;19.30;40.83;101552.94;4977241;28;97444;-58
2023/06/04 00:11:46;;;;;;;0.83;0.30;;;19.20;91.30;;;19.29;39.67;101553.88;4978714;27;97156;-54
2023/06/04 00:14:13;;;;;;;0.90;0.40;;;19.20;91.20;;;19.29;42.68;101550.34;4977080;28;105376;-57
2023/06/04 00:16:40;;;;;;;0.37;0.37;;;19.10;94.10;;;19.29;42.75;101545.88;4975424;27;97231;-55
2023/06/04 00:19:06;;;;;;;0.50;0.50;;;19.20;95.20;;;19.30;42.20;101547.59;4977896;27;97082;-56
2023/06/04 00:21:32;;;;;;;0.53;0.30;;;19.20;93.20;;;19.30;42.09;101541.38;4977552;28;97521;-55
2023/06/04 00:24:00;;;;;;;0.53;0.50;;;19.20;93.50;;;19.27;42.46;101542.41;4980309;28;97358;-54
2023/06/04 00:26:25;;;;;;;0.63;0.30;;;19.10;94.00;;;19.24;39.21;101539.94;4968903;28;98233;-55
2023/06/04 00:28:51;;;;;;;1.00;0.40;;;19.10;91.70;;;19.24;42.27;101547.94;4976967;28;97330;-54
2023/06/04 00:31:17;;;;;;;0.20;0.20;;;19.10;93.90;;;19.24;43.13;101545.28;4977930;28;97361;-56
2023/06/04 00:33:43;;;;;;;0.77;0.47;;;19.10;95.70;;;19.12;38.46;101559.34;4978642;27;100504;-57
2023/06/04 00:36:09;;;;;;;0.20;0.20;;;18.90;90.40;;;19.13;39.09;101544.16;4980597;28;97774;-57
2023/06/04 00:38:35;;;;;;;0.83;0.40;;;18.90;91.10;;;19.07;40.15;101550.69;4981771;28;97043;-51
2023/06/04 00:41:00;;;;;;;0.40;0.40;;;18.80;91.20;;;19.01;41.30;101553.75;4976202;28;98152;-54
2023/06/04 00:43:26;;;;;;;0.30;0.30;;;18.70;91.60;;;18.91;38.05;101549.84;4971840;28;97289;-56
2023/06/04 00:45:53;;;;;;;2.53;0.30;;;18.60;90.70;;;18.95;43.55;101552.28;4970657;28;97305;-56
2023/06/04 00:48:20;;;;;;;0.53;0.33;;;18.60;96.10;;;18.98;43.03;101551.25;4972464;27;96895;-55
2023/06/04 00:50:48;;;;;;;1.37;0.50;;;18.70;94.00;;;18.96;43.72;101547.81;4978499;28;98368;-55
2023/06/04 00:53:14;;;;;;;0.20;0.20;;;18.70;95.00;;;18.98;43.71;101551.25;4978603;28;97921;-52
2023/06/04 00:55:41;;;;;;;1.60;0.40;;;18.80;95.20;;;18.99;42.44;101548.50;4971546;28;97639;-57
2023/06/04 00:58:09;;;;;;;0.77;0.40;;;18.80;92.90;;;18.95;42.27;101556.75;4981897;28;97128;-56
2023/06/04 01:00:36;;;;;;;0.87;0.40;;;18.70;91.40;;;18.95;43.94;101554.06;4970145;28;97984;-54
2023/06/04 01:03:07;;;;;;;1.37;0.60;;;18.70;96.70;;;18.95;43.95;101557.63;4978892;28;97604;-57
2023/06/04 01:05:42;;;;;;;1.10;0.30;;;18.70;95.30;;;18.97;43.82;101555.72;4979218;28;98470;-55
2023/06/04 01:08:09;;;;;;;1.20;0.50;;;18.80;96.40;;;18.98;43.50;101553.91;4970710;28;98003;-52
2023/06/04 01:10:35;;;;;;;0.50;0.37;;;18.80;94.30;;;18.99;43.72;101553.84;4972653;28;97081;-54
2023/06/04 01:13:01;;;;;;;0.60;0.40;;;18.80;95.70;;;18.98;43.89;101548.56;4981394;28;98055;-52
2023/06/04 01:15:27;;;;;;;0.50;0.40;;;18.80;96.40;;;19.01;44.18;101546.59;4973163;28;97294;-53
2023/06/04 01:18:03;;;;;;;0.40;0.20;;;18.80;96.70;;;19.00;44.07;101544.00;4974193;28;103047;-56
2023/06/04 01:20:32;;;;;;;0.67;0.40;;;18.80;96.50;;;18.99;43.65;101552.97;4981911;28;97339;-55
2023/06/04 01:23:10;;;;;;;0.40;0.20;;;18.80;94.70;;;18.99;43.52;101552.97;4982024;28;97317;-52
2023/06/04 01:25:43;;;;;;;1.37;0.40;;;18.80;95.90;;;18.94;41.40;101560.38;4978114;28;97896;-56
2023/06/04 01:28:11;;;;;;;1.50;0.50;;;18.70;92.10;;;18.86;44.02;101558.16;4976748;28;97334;-55
2023/06/04 01:30:45;;;;;;;1.63;0.50;;;18.50;95.60;;;18.82;41.77;101566.44;4977608;27;97241;-56
2023/06/04 01:33:13;;;;;;;0.60;0.30;;;18.50;92.40;;;18.75;44.06;101559.69;4974774;28;98683;-56
2023/06/04 01:35:39;;;;;;;0.63;0.20;;;18.40;95.10;;;18.79;44.56;101555.88;4974754;28;97853;-52
2023/06/04 01:38:06;;;;;;;0.30;0.20;;;18.50;96.20;;;18.69;44.52;101559.09;4977503;28;96861;-57
2023/06/04 01:40:32;;;;;;;0.53;0.30;;;18.40;97.40;;;18.73;43.40;101563.31;4975052;28;98229;-57
2023/06/04 01:42:58;;;;;;;0.63;0.50;;;18.40;93.10;;;18.72;44.31;101563.41;4977021;28;101285;-53
2023/06/04 01:45:26;;;;;;;0.90;0.47;;;18.40;94.90;;;18.68;44.34;101564.53;4968119;28;97922;-54
2023/06/04 01:47:53;;;;;;;0.63;0.30;;;18.30;94.60;;;18.65;44.87;101560.19;4975981;28;97237;-58
2023/06/04 01:50:19;;;;;;;0.60;0.50;;;18.30;96.80;;;18.59;43.74;101564.97;4974229;28;98044;-57
2023/06/04 01:52:44;;;;;;;0.60;0.37;;;18.20;93.90;;;18.62;43.88;101562.13;4981425;28;101752;-56
2023/06/04 01:55:14;;;;;;;0.40;0.20;;;18.30;94.20;;;18.66;45.13;101558.38;4983806;28;97292;-55
2023/06/04 01:57:42;;;;;;;0.73;0.30;;;18.30;98.10;;;18.65;44.86;101568.19;4967382;27;97557;-54
2023/06/04 02:00:10;;;;;;;0.93;0.60;;;18.40;97.70;;;18.66;44.70;101572.63;4978391;28;97462;-57
2023/06/04 02:02:41;;;;;;;1.43;0.40;;;18.40;96.20;;;18.60;40.08;101569.38;4975926;28;99863;-56
2023/06/04 02:05:08;;;;;;;0.23;0.20;;;18.30;92.60;;;18.63;44.85;101572.78;4982720;28;98809;-55
2023/06/04 02:07:47;;;;;;;0.87;0.30;;;18.30;95.90;;;18.65;44.72;101560.19;4973136;28;97496;-56
2023/06/04 02:10:16;;;;;;;2.43;0.53;;;18.40;96.40;;;18.64;45.00;101563.81;4984358;28;100227;-58
2023/06/04 02:12:55;;;;;;;2.87;0.30;;;18.40;96.50;;;18.58;42.47;101564.13;4973599;28;98501;-56
2023/06/04 02:15:22;;;;;;;0.30;0.30;;;18.30;93.20;;;18.60;44.82;101567.56;4968126;28;97395;-56
2023/06/04 02:17:50;;;;;;;0.90;0.60;;;18.30;95.80;;;18.55;43.22;101566.97;4976385;28;97542;-56
2023/06/04 02:20:16;;;;;;;1.43;0.30;;;18.20;93.20;;;18.47;44.36;101566.50;4983248;28;97377;-54
2023/06/04 02:22:43;;;;;;;0.30;0.20;;;18.00;93.60;;;18.48;45.45;101578.91;4973549;28;98120;-53
2023/06/04 02:25:09;;;;;;;0.60;0.40;;;18.00;98.20;;;18.49;44.61;101575.28;4977780;28;98122;-56
2023/06/04 02:27:35;;;;;;;2.37;0.40;;;18.10;94.40;;;18.43;45.62;101570.28;4978074;28;97502;-57
2023/06/04 02:30:02;;;;;;;0.70;0.47;;;18.00;97.00;;;18.48;45.84;101573.56;4987140;28;97384;-52
2023/06/04 02:32:28;;;;;;;0.30;0.23;;;18.10;98.60;;;18.50;45.14;101577.03;4986220;28;98335;-56
2023/06/04 02:34:55;;;;;;;0.40;0.27;;;18.20;95.10;;;18.50;45.57;101574.34;4985774;28;97383;-54
2023/06/04 02:37:22;;;;;;;0.73;0.40;;;18.20;97.90;;;18.50;45.57;101582.34;4972508;28;97555;-54
2023/06/04 02:39:48;;;;;;;0.83;0.40;;;18.20;98.30;;;18.50;45.13;101582.34;4983667;28;97505;-56
2023/06/04 02:42:13;;;;;;;0.40;0.30;;;18.20;95.60;;;18.47;45.61;101582.53;4979601;28;99689;-52
2023/06/04 02:44:39;;;;;;;0.30;0.30;;;18.10;96.90;;;18.43;45.53;101578.31;4973808;28;97160;-56
2023/06/04 02:47:06;;;;;;;0.40;0.20;;;18.00;97.20;;;18.45;45.46;101579.09;4982959;27;97276;-52
2023/06/04 02:49:32;;;;;;;0.50;0.20;;;18.10;96.40;;;18.49;45.93;101580.63;4978386;28;98128;-56
2023/06/04 02:51:57;;;;;;;0.97;0.50;;;18.10;98.50;;;18.51;44.30;101578.75;4987268;28;97301;-53
2023/06/04 02:54:23;;;;;;;2.20;0.50;;;18.20;95.50;;;18.49;44.56;101575.28;4977425;28;97940;-56
2023/06/04 02:56:49;;;;;;;0.93;0.57;;;18.20;95.20;;;18.43;46.00;101572.97;4971326;28;99300;-54
2023/06/04 02:59:15;;;;;;;0.53;0.30;;;18.00;97.80;;;18.48;45.79;101578.06;4978541;28;97126;-52
2023/06/04 03:01:41;;;;;;;0.50;0.23;;;18.10;98.10;;;18.44;45.80;101577.38;4976047;28;114953;-54
2023/06/04 03:04:09;;;;;;;0.63;0.20;;;18.00;98.70;;;18.44;45.79;101580.91;4977201;28;96948;-54
2023/06/04 03:06:39;;;;;;;0.60;0.30;;;18.10;98.50;;;18.44;44.84;101585.38;4979710;28;97227;-56
2023/06/04 03:09:05;;;;;;;0.10;0.10;;;18.10;94.90;;;18.39;46.00;101580.28;4984366;28;97952;-56
2023/06/04 03:11:31;;;;;;;0.80;0.23;;;18.00;97.30;;;18.39;46.01;101584.78;4976375;28;98237;-58
2023/06/04 03:13:56;;;;;;;1.30;0.37;;;18.00;96.90;;;18.36;45.96;101582.25;4975307;27;97168;-57
2023/06/04 03:16:22;;;;;;;0.70;0.30;;;17.90;98.50;;;18.38;46.07;101586.59;4981273;28;97183;-53
2023/06/04 03:18:48;;;;;;;0.60;0.20;;;18.00;99.10;;;18.37;45.86;101576.84;4983943;28;97383;-56
2023/06/04 03:21:14;;;;;;;0.53;0.30;;;18.00;98.20;;;18.42;46.08;101579.25;4984911;28;97405;-56
2023/06/04 03:23:40;;;;;;;1.27;0.60;;;18.10;98.60;;;18.37;44.71;101581.28;4972392;28;112053;-56
2023/06/04 03:26:06;;;;;;;0.73;0.20;;;18.00;94.70;;;18.35;45.12;101583.19;4980223;28;98263;-55
2023/06/04 03:28:33;;;;;;;0.63;0.50;;;18.00;95.00;;;18.19;44.32;101583.13;4973387;28;97409;-54
2023/06/04 03:31:00;;;;;;;1.43;0.73;;;17.70;95.40;;;18.26;44.55;101587.22;4982766;28;97575;-58
2023/06/04 03:33:25;;;;;;;0.77;0.23;;;17.80;95.80;;;18.16;45.91;101587.78;4979012;28;97802;-57
2023/06/04 03:35:58;;;;;;;0.60;0.37;;;17.60;96.70;;;18.18;46.56;101588.56;4980906;28;99396;-56
2023/06/04 03:38:27;;;;;;;1.00;0.30;;;17.70;98.90;;;18.10;45.83;101579.16;4974311;28;97624;-58
2023/06/04 03:40:54;;;;;;;2.47;0.50;;;17.60;95.90;;;18.06;46.57;101574.03;4978710;28;98000;-58
2023/06/04 03:43:20;;;;;;;2.67;0.30;;;17.50;96.70;;;18.07;46.14;101568.63;4971499;28;97318;-57
2023/06/04 03:45:46;;;;;;;1.37;0.60;;;17.60;96.20;;;18.08;46.93;101569.47;4978082;28;98238;-56
2023/06/04 03:48:12;;;;;;;0.97;0.57;;;17.60;99.90;;;18.06;46.17;101569.56;4976798;28;97883;-57
2023/06/04 03:50:38;;;;;;;0.30;0.30;;;17.60;96.20;;;18.06;46.75;101569.56;4977667;28;100956;-54
2023/06/04 03:53:07;;;;;;;0.50;0.33;;;17.60;99.80;;;18.05;46.81;101577.66;4976721;28;100423;-58
2023/06/04 03:55:33;;;;;;;0.77;0.50;;;17.60;98.60;;;17.98;46.15;101577.13;4977325;28;101128;-56
2023/06/04 03:57:59;;;;;;;0.93;0.40;;;17.50;95.90;;;17.95;46.93;101574.63;4985985;28;98700;-56
2023/06/04 04:00:25;;;;;;;1.17;0.30;;;17.40;97.10;;;17.97;47.03;101580.75;4974458;28;98288;-56
2023/06/04 04:02:51;;;;;;;0.90;0.40;;;17.40;98.90;;;17.96;46.99;101579.03;4981757;27;97674;-57
2023/06/04 04:05:17;;;;;;;0.40;0.40;;;17.40;98.40;;;17.98;46.99;101574.47;4985980;28;97086;-58
2023/06/04 04:07:42;;;;;;;0.30;0.23;;;17.50;97.80;;;17.91;46.56;101578.38;4977218;28;96913;-54
2023/06/04 04:10:09;;;;;;;0.77;0.40;;;17.40;97.70;;;17.84;47.15;101574.31;4980277;27;101118;-58
2023/06/04 04:12:35;;;;;;;1.57;0.50;;;17.30;99.20;;;17.90;41.63;101575.78;4984467;27;97359;-57
2023/06/04 04:15:01;;;;;;;0.87;0.30;;;17.40;95.40;;;17.87;47.37;101574.16;4970149;28;97264;-52
2023/06/04 04:17:27;;;;;;;0.50;0.20;;;17.40;99.90;;;17.79;47.10;101569.22;4981288;28;97250;-57
2023/06/04 04:19:53;;;;;;;1.87;0.30;;;17.30;97.50;;;17.75;44.60;101572.09;4977566;28;99368;-55
2023/06/04 04:22:19;;;;;;;3.13;0.63;;;17.20;95.40;;;17.78;46.46;101572.81;4972374;28;97251;-56
2023/06/04 04:24:44;;;;;;;1.37;0.60;;;17.20;96.70;;;17.68;45.42;101581.34;4974691;28;98024;-57
2023/06/04 04:27:13;;;;;;;1.63;0.63;;;17.10;95.80;;;17.72;47.42;101577.59;4983550;28;104843;-53
2023/06/04 04:29:42;;;;;;;0.50;0.40;;;17.10;97.10;;;17.71;47.42;101576.75;4973862;28;97672;-57
2023/06/04 04:32:10;;;;;;;0.40;0.40;;;17.10;98.40;;;17.70;47.58;101579.50;4976919;28;97390;-54
2023/06/04 04:34:42;;;;;;;0.37;0.27;;;17.10;99.00;;;17.70;47.71;101579.50;4960875;28;100476;-58
2023/06/04 04:37:09;;;;;;;1.50;0.60;;;17.10;99.30;;;17.74;47.79;101581.06;4972099;28;97224;-55
2023/06/04 04:39:36;;;;;;;0.50;0.40;;;17.10;99.40;;;17.76;47.71;101579.16;4970011;28;97700;-58
2023/06/04 04:42:03;;;;;;;1.60;0.77;;;17.20;98.70;;;17.78;46.84;101571.94;4978317;28;97614;-56
2023/06/04 04:44:29;;;;;;;3.03;0.60;;;17.20;98.30;;;17.75;46.21;101580.09;4969661;28;97315;-53
2023/06/04 04:46:54;;;;;;;5.40;0.53;;;17.10;97.00;;;17.75;43.98;101588.13;4982329;28;97737;-55
2023/06/04 04:49:20;;;;;;;1.27;0.40;;;17.20;96.90;;;17.78;47.21;101583.47;4970113;28;114112;-56
2023/06/04 04:51:46;;;;;;;0.67;0.50;;;17.20;97.90;;;17.72;46.21;101582.94;4977688;28;114408;-55
2023/06/04 04:54:12;;;;;;;1.60;0.57;;;17.10;97.20;;;17.77;47.68;101580.88;4976639;28;97446;-56
2023/06/04 04:56:38;;;;;;;1.07;0.53;;;17.20;98.50;;;17.73;46.26;101590.00;4977686;28;101309;-53
2023/06/04 04:59:04;;;;;;;1.30;0.97;;;17.20;97.70;;;17.75;47.06;101582.78;4974147;28;97400;-57
2023/06/04 05:01:30;;;;;;;1.33;0.67;;;17.10;98.20;;;17.68;44.64;101582.25;4975513;28;97580;-53
2023/06/04 05:03:55;;;;;;;1.03;0.40;;;17.10;97.80;;;17.67;47.01;101591.16;4976919;28;97051;-57
2023/06/04 05:06:21;;;;;;;1.03;0.53;;;17.10;98.50;;;17.65;46.96;101584.13;4975300;28;105794;-53
2023/06/04 05:08:48;;;;;;;0.47;0.47;;;17.10;98.60;;;17.60;46.29;101583.53;4970991;28;97462;-55
2023/06/04 05:11:14;;;;;;;0.53;0.50;;;17.00;98.40;;;17.60;47.62;101583.53;4979954;28;98078;-55
2023/06/04 05:13:41;;;;;;;1.20;0.60;;;17.00;98.60;;;17.62;46.97;101586.97;4975612;28;100341;-56
2023/06/04 05:16:07;;;;;;;0.53;0.47;;;17.00;97.70;;;17.58;44.88;101586.28;4968438;28;97334;-57
2023/06/04 05:18:34;;;;;;;2.23;0.90;;;17.10;97.10;;;17.64;46.92;101585.94;4975900;28;97620;-57
2023/06/04 05:21:02;;;;;;;1.13;0.70;;;17.10;97.80;;;17.68;44.58;101592.03;4969521;28;97102;-57
2023/06/04 05:23:33;;;;;;;2.60;0.70;;;17.20;97.00;;;17.67;46.08;101590.28;4967899;28;97618;-56
2023/06/04 05:25:59;;;;;;;1.33;0.60;;;17.20;97.10;;;17.68;45.11;101587.56;4984127;28;99649;-56
2023/06/04 05:28:25;;;;;;;0.97;0.50;;;17.20;96.80;;;17.61;43.11;101586.09;4973691;28;98088;-57
2023/06/04 05:30:58;;;;;;;0.93;0.70;;;17.20;96.90;;;17.55;42.93;101592.63;4975158;28;97139;-55
2023/06/04 05:33:28;;;;;;;0.97;0.90;;;17.10;96.70;;;17.51;44.53;101585.72;4976123;28;97271;-58
2023/06/04 05:35:57;;;;;;;1.10;0.80;;;17.10;96.50;;;17.61;44.60;101590.59;4981427;28;96792;-56
2023/06/04 05:38:26;;;;;;;7.13;0.70;;;17.20;97.00;;;17.56;42.33;101590.81;4974395;28;97602;-56
2023/06/04 05:40:55;;;;;;;3.03;0.77;;;17.20;96.20;;;17.53;42.35;101589.19;4978246;28;97519;-55
2023/06/04 05:43:21;;;;;;;1.00;0.60;;;17.20;96.30;;;17.47;41.93;101589.47;4953949;28;98967;-57
2023/06/04 05:45:48;;;;;;;0.83;0.50;;;17.20;96.00;;;17.44;43.57;101584.28;4977500;28;97360;-53
2023/06/04 05:48:14;;;;;;;1.40;0.70;;;17.10;97.20;;;17.41;42.17;101584.44;4979899;28;98013;-53
2023/06/04 05:50:40;;;;;;;0.63;0.43;;;17.10;96.10;;;17.39;42.51;101591.66;4975000;28;97814;-56
2023/06/04 05:53:06;;;;;;;1.83;0.70;;;17.10;96.30;;;17.37;42.54;101588.22;4975740;28;97561;-52
2023/06/04 05:55:32;;;;;;;0.97;0.60;;;17.00;96.50;;;17.42;42.19;101596.84;4973892;28;98324;-53
2023/06/04 05:57:58;;;;;;;1.67;0.70;;;17.10;96.20;;;17.45;42.20;101599.34;4981285;28;119833;-56
2023/06/04 06:00:24;;;;;;;2.50;0.50;;;17.10;96.00;;;17.47;41.95;101600.13;4971221;28;104930;-56
2023/06/04 06:02:52;;;;;;;2.40;0.70;;;17.20;95.70;;;17.54;41.69;101606.91;4974714;28;97414;-54
2023/06/04 06:05:19;;;;;;;0.90;0.60;;;17.30;95.40;;;17.67;41.81;101606.31;4976767;28;97299;-56
2023/06/04 06:07:45;;;;;;;2.00;0.80;;;17.40;95.60;;;17.71;41.51;101607.91;4975810;28;101626;-53
2023/06/04 06:10:12;;;;;;;1.37;0.60;;;17.50;95.20;;;17.75;41.87;101610.31;4977590;28;97684;-54
2023/06/04 06:12:38;;;;;;;2.13;0.90;;;17.50;95.40;;;17.81;42.25;101604.69;4980141;28;97243;-54
2023/06/04 06:15:05;;;;;;;1.17;0.50;;;17.60;95.60;;;17.85;42.08;101605.41;4981918;28;97552;-55
2023/06/04 06:17:32;;;;;;;0.83;0.77;;;17.60;95.70;;;17.99;46.49;101618.91;4972839;27;97479;-58
2023/06/04 06:19:58;;;;;;;1.40;0.70;;;17.70;97.60;;;18.09;46.53;101614.81;4977114;28;97589;-56
2023/06/04 06:22:24;;;;;;;2.23;0.60;;;17.90;98.70;;;18.08;42.27;101617.53;4968316;28;97629;-52
2023/06/04 06:24:50;;;;;;;2.10;0.53;;;17.90;96.10;;;18.14;44.09;101617.25;4975556;28;97069;-57
2023/06/04 06:27:17;;;;;;;2.37;0.53;;;17.90;96.00;;;18.11;42.05;101617.41;4974230;27;97569;-55
2023/06/04 06:29:43;;;;;;;1.03;0.70;;;17.90;95.80;;;18.28;46.38;101629.88;4976108;28;97710;-57
2023/06/04 06:32:10;;;;;;;1.83;0.60;;;18.10;98.90;;;18.25;41.74;101624.69;4983982;28;97088;-56
2023/06/04 06:34:37;;;;;;;1.40;0.90;;;18.10;95.80;;;18.29;41.43;101627.13;4975449;28;114760;-57
2023/06/04 06:37:04;;;;;;;2.13;0.77;;;18.10;95.40;;;18.26;40.94;101629.09;4973707;28;98678;-57
2023/06/04 06:39:32;;;;;;;1.00;0.67;;;18.10;95.00;;;18.43;45.29;101634.41;4974393;28;97157;-56
2023/06/04 06:41:58;;;;;;;0.80;0.63;;;18.30;97.20;;;18.43;42.16;101627.25;4979937;28;97121;-55
2023/06/04 06:44:23;;;;;;;3.13;0.83;;;18.30;95.70;;;18.53;44.27;101630.31;4952015;28;99336;-56
2023/06/04 06:46:49;;;;;;;0.40;0.40;;;18.40;95.80;;;18.61;45.75;101632.56;4979484;28;97079;-58
2023/06/04 06:49:16;;;;;;;1.40;0.77;;;18.50;98.60;;;18.71;43.62;101629.34;4977053;28;97437;-56
2023/06/04 06:51:41;;;;;;;0.73;0.67;;;18.70;96.50;;;18.77;40.46;101632.63;4978134;28;97316;-55
2023/06/04 06:54:10;;;;;;;3.53;1.10;;;18.70;94.20;;;18.77;40.37;101637.97;4982057;28;107793;-55
2023/06/04 06:56:36;;;;;;;1.97;0.70;;;18.70;94.20;;;18.82;42.30;101630.56;4978129;28;101880;-56
2023/06/04 06:59:02;;;;;;;1.67;0.70;;;18.70;95.90;;;18.82;40.94;101643.94;4972582;28;101282;-57
2023/06/04 07:01:28;;;;;;;0.87;0.60;;;18.70;94.80;;;18.82;39.50;101644.81;4981682;28;97777;-55
2023/06/04 07:03:53;;;;;;;1.03;1.00;;;18.70;93.60;;;18.82;39.30;101643.94;4976276;28;100415;-55
2023/06/04 07:06:19;;;;;;;2.47;0.67;;;18.70;93.20;;;18.87;40.97;101647.22;4980157;28;120109;-52
2023/06/04 07:08:47;;;;;;;1.53;1.00;;;18.70;94.10;;;18.96;40.65;101644.06;4977883;28;123942;-55
2023/06/04 07:11:14;;;;;;;1.57;0.83;;;18.90;94.80;;;18.95;39.11;101642.28;4961995;28;97757;-55
2023/06/04 07:13:40;;;;;;;1.13;0.90;;;18.90;93.00;;;19.00;40.93;101656.28;4944505;28;96963;-57
2023/06/04 07:16:06;;;;;;;0.87;0.70;;;18.90;93.30;;;19.06;39.86;101639.91;4933812;28;99779;-58
2023/06/04 07:18:32;;;;;;;1.60;1.00;;;19.00;93.40;;;19.09;40.31;101650.41;4942475;28;98274;-57
2023/06/04 07:20:58;;;;;;;1.07;0.87;;;19.00;94.00;;;19.06;38.96;101647.06;4947581;28;97355;-57
2023/06/04 07:23:24;;;;;;;1.57;0.80;;;19.00;92.80;;;19.12;41.42;101644.91;4944845;27;97296;-56
2023/06/04 07:25:50;;;;;;;1.23;0.63;;;19.00;94.10;;;19.20;39.43;101637.31;4955525;27;99235;-57
2023/06/04 07:28:16;;;;;;;1.00;0.80;;;19.20;93.50;;;19.27;39.71;101636.03;4959264;28;99295;-53
2023/06/04 07:30:44;;;;;;;7.07;1.07;;;19.20;93.70;;;19.30;38.66;101638.53;4947261;28;99682;-56
2023/06/04 07:33:10;;;;;;;1.13;0.87;;;19.30;92.80;;;19.36;40.08;101636.44;4952468;28;97520;-57
2023/06/04 07:35:36;;;;;;;1.10;0.80;;;19.30;93.30;;;19.41;43.71;101629.03;4945476;28;98773;-55
2023/06/04 07:38:02;;;;;;;2.30;0.80;;;19.40;96.50;;;19.45;39.22;101635.94;4949612;27;111631;-57
2023/06/04 07:40:28;;;;;;;0.97;0.90;;;19.50;93.00;;;19.47;39.04;101634.03;4944308;28;100308;-56
2023/06/04 07:42:53;;;;;;;4.07;0.87;;;19.50;92.80;;;19.52;39.33;101631.94;4944644;28;97382;-56
2023/06/04 07:45:19;;;;;;;2.50;0.90;;;19.50;92.90;;;19.52;38.32;101632.81;4952517;28;98355;-54
2023/06/04 07:47:45;;;;;;;1.57;0.80;;;19.50;92.20;;;19.55;39.25;101634.50;4955526;28;102875;-54
2023/06/04 07:50:11;;;;;;;1.13;0.50;;;19.60;92.70;;;19.56;42.83;101633.53;4956543;28;103662;-54
2023/06/04 07:52:37;;;;;;;4.83;1.03;;;19.60;96.10;;;19.60;41.83;101632.41;4954708;28;99485;-57
2023/06/04 07:55:03;;;;;;;1.10;0.60;;;19.60;94.70;;;19.65;37.71;101622.28;4958090;28;97136;-55
2023/06/04 07:57:29;;;;;;;3.67;1.00;;;19.70;91.60;;;19.69;39.33;101629.22;4925703;28;100366;-56
2023/06/04 07:59:56;;;;;;;1.63;0.87;;;19.70;92.30;;;19.71;39.30;101627.28;4954229;28;98078;-58
2023/06/04 08:02:22;;;;;;;1.80;1.10;;;19.70;92.20;;;19.78;37.87;101634.00;4950035;28;97423;-57
2023/06/04 08:04:48;;;;;;;2.27;1.07;;;19.80;91.40;;;19.77;39.75;101631.41;4947339;28;99528;-53
2023/06/04 08:07:14;;;;;;;1.50;0.77;;;19.80;92.90;;;19.74;41.60;101632.47;4952568;28;99701;-54
2023/06/04 08:09:41;;;;;;;1.03;0.60;;;19.80;94.50;;;19.54;42.60;101624.72;4948602;28;97306;-53
2023/06/04 08:12:07;;;;;;;0.90;0.50;;;19.70;95.10;;;19.43;43.74;101622.66;4934318;28;97435;-54
2023/06/04 08:14:33;;;;;;;2.20;0.70;;;19.70;96.20;;;19.40;43.85;101627.31;4949406;28;97099;-55
2023/06/04 08:16:58;;;;;;;5.13;0.80;;;19.60;96.30;;;19.18;44.43;101623.16;4950981;28;102153;-57
2023/06/04 08:19:24;;;;;;;1.07;0.50;;;19.50;96.60;;;19.11;44.43;101621.81;4948282;28;97442;-57
2023/06/04 08:21:50;;;;;;;0.83;0.70;;;19.40;96.80;;;19.09;44.29;101621.00;4955883;28;100445;-54
2023/06/04 08:24:16;;;;;;;0.50;0.40;;;19.30;96.70;;;19.12;44.63;101622.66;4950146;28;99217;-57
2023/06/04 08:26:42;;;;;;;0.73;0.50;;;19.40;96.80;;;19.27;43.71;101621.81;4946967;28;119161;-56
2023/06/04 08:29:08;;;;;;;0.67;0.40;;;19.50;96.20;;;19.18;44.00;101623.16;4950660;28;99487;-55
2023/06/04 08:31:34;;;;;;;0.60;0.60;;;19.40;96.50;;;19.19;41.07;101619.53;4946656;28;99526;-56
2023/06/04 08:34:00;;;;;;;0.87;0.43;;;19.40;95.10;;;19.12;44.62;101623.53;4952381;28;98018;-57
2023/06/04 08:36:27;;;;;;;0.67;0.50;;;19.40;96.80;;;19.07;44.67;101625.56;4945697;28;98664;-55
2023/06/04 08:38:53;;;;;;;1.17;0.63;;;19.30;97.00;;;19.09;44.66;101623.69;4949722;28;97817;-58
2023/06/04 08:41:29;;;;;;;1.10;0.50;;;19.30;97.00;;;19.25;43.30;101624.56;4949839;28;98441;-58
2023/06/04 08:44:01;;;;;;;0.93;0.60;;;19.40;96.40;;;19.16;44.30;101619.72;4948846;27;101277;-57
2023/06/04 08:46:29;;;;;;;0.40;0.40;;;19.40;96.70;;;19.12;44.60;101617.31;4942823;28;97485;-56
2023/06/04 08:49:02;;;;;;;1.10;0.60;;;19.40;96.80;;;19.13;44.21;101617.22;4961154;28;99783;-55
2023/06/04 08:51:32;;;;;;;1.07;0.60;;;19.30;96.70;;;19.11;43.82;101620.94;4939698;28;97657;-55
2023/06/04 08:53:59;;;;;;;0.97;0.50;;;19.30;96.70;;;19.01;44.42;101620.59;4949398;28;100213;-57
2023/06/04 08:56:28;;;;;;;0.87;0.47;;;19.30;96.90;;;18.99;44.14;101623.34;4947865;28;97444;-57
2023/06/04 08:59:01;;;;;;;1.00;0.40;;;19.30;96.50;;;19.07;44.37;101620.22;4950315;28;102403;-58
2023/06/04 09:01:27;;;;;;;0.63;0.50;;;19.30;96.90;;;19.14;43.63;101616.28;4952031;28;97116;-57
2023/06/04 09:03:52;;;;;;;1.10;0.67;;;19.30;96.40;;;19.03;43.93;101624.03;4973226;28;97412;-56
2023/06/04 09:06:18;;;;;;;1.50;0.83;;;19.30;96.60;;;18.97;44.47;101627.06;4983846;28;120806;-56
2023/06/04 09:08:45;;;;;;;1.07;0.60;;;19.30;96.60;;;18.99;44.05;101638.53;4974191;28;108837;-56
2023/06/04 09:11:14;;;;;;;2.53;0.80;;;19.30;96.50;;;19.06;43.81;101636.38;4983471;28;97311;-56
2023/06/04 09:13:43;;;;;;;0.80;0.40;;;19.30;96.40;;;19.03;43.52;101640.06;4972451;28;114438;-55
2023/06/04 09:16:09;;;;;;;2.87;0.77;;;19.30;96.10;;;18.97;43.80;101641.28;4973603;28;104149;-57
2023/06/04 09:18:35;;;;;;;4.63;1.00;;;19.30;96.40;;;19.05;43.26;101627.47;4978387;28;96662;-56
2023/06/04 09:21:05;;;;;;;1.20;0.60;;;19.30;96.10;;;19.16;43.21;101630.41;4978078;28;97540;-56
2023/06/04 09:23:44;;;;;;;1.20;0.60;;;19.40;96.10;;;19.29;42.81;101625.25;4980906;28;97240;-58
2023/06/04 09:26:11;;;;;;;1.00;0.63;;;19.40;95.50;;;19.45;41.67;101619.88;4970621;28;97575;-55
2023/06/04 09:28:41;;;;;;;1.80;0.60;;;19.60;93.60;;;19.56;37.96;101622.84;4973818;28;97266;-55
2023/06/04 09:31:15;;;;;;;3.93;0.70;;;19.70;92.40;;;19.47;42.63;101628.69;4987772;28;97076;-55
2023/06/04 09:33:49;;;;;;;2.83;0.80;;;19.60;95.30;;;19.26;43.56;101626.28;4984477;28;97205;-56
2023/06/04 09:36:16;;;;;;;1.70;0.70;;;19.60;96.20;;;19.15;43.04;101618.00;4982196;28;97501;-54
2023/06/04 09:38:42;;;;;;;1.67;0.87;;;19.40;95.70;;;19.22;43.60;101624.72;4982551;28;97208;-56
2023/06/04 09:41:21;;;;;;;0.53;0.50;;;19.50;96.20;;;19.55;39.12;101615.75;4982585;28;97814;-56
2023/06/04 09:43:47;;;;;;;2.30;0.60;;;19.70;91.50;;;19.47;41.22;101629.53;4981081;28;101684;-55
2023/06/04 09:46:17;;;;;;;1.33;0.60;;;19.70;94.20;;;19.26;42.17;101626.28;4975351;28;97341;-55
2023/06/04 09:48:44;;;;;;;3.80;0.90;;;19.50;95.00;;;19.26;42.71;101626.28;4972884;28;97081;-54
2023/06/04 09:51:15;;;;;;;1.70;0.97;;;19.50;95.50;;;19.17;41.74;101624.13;4980989;28;97931;-55
2023/06/04 09:53:41;;;;;;;2.90;1.20;;;19.40;94.20;;;19.24;42.08;101622.84;4975126;28;96760;-55
2023/06/04 09:56:08;;;;;;;2.00;0.77;;;19.50;94.70;;;19.17;42.74;101626.78;4982366;28;113357;-58
2023/06/04 09:58:35;;;;;;;1.30;0.70;;;19.40;95.00;;;19.19;43.62;101619.53;4981283;28;99615;-56
2023/06/04 10:01:04;;;;;;;3.93;1.20;;;19.50;95.60;;;19.26;42.36;101620.94;4987924;28;97315;-56
2023/06/04 10:03:33;;;;;;;1.70;0.80;;;19.50;95.00;;;19.51;41.45;101627.53;4964523;28;102699;-57
2023/06/04 10:06:02;;;;;;;3.03;0.70;;;19.70;94.10;;;19.32;42.08;101623.25;4979491;28;97272;-56
2023/06/04 10:08:30;;;;;;;2.17;0.90;;;19.60;94.80;;;19.20;43.59;101621.28;4976597;28;97538;-56
2023/06/04 10:11:00;;;;;;;3.17;0.90;;;19.50;95.60;;;19.21;42.14;101622.13;4985108;28;97554;-55